createdAt,value
2019-05-14T00:01:51.981Z,103755.51
2019-05-14T00:05:01.688Z,103766.28
2019-05-14T00:08:11.462Z,103766.13
2019-05-14T00:11:31.304Z,103766.73
2019-05-14T00:14:43.802Z,103772.72
2019-05-14T00:17:52.325Z,103766.91
2019-05-14T00:21:01.878Z,103768.36
2019-05-14T00:24:21.727Z,103772.46
2019-05-14T00:27:31.222Z,103773.41
2019-05-14T00:30:42.275Z,103764.78
2019-05-14T00:33:52.885Z,103760.17
2019-05-14T00:37:01.748Z,103757.86
2019-05-14T00:40:11.832Z,103757.34
2019-05-14T00:43:22.169Z,103757.37
2019-05-14T00:46:41.148Z,103746.58
2019-05-14T00:49:51.742Z,103758.62
2019-05-14T00:53:01.925Z,103762.67
2019-05-14T00:56:22.840Z,103761.03
2019-05-14T00:59:32.262Z,103765.17
2019-05-14T01:02:41.754Z,103759.37
2019-05-14T01:05:52.156Z,103760.45
2019-05-14T01:09:01.477Z,103759.17
2019-05-14T01:12:21.437Z,103747.16
2019-05-14T01:15:32.407Z,103751.10
2019-05-14T01:18:41.584Z,103759.27
2019-05-14T01:22:01.690Z,103754.52
2019-05-14T01:25:11.994Z,103761.10
2019-05-14T01:28:21.621Z,103757.20
2019-05-14T01:31:41.743Z,103750.81
2019-05-14T01:34:52.484Z,103749.59
2019-05-14T01:38:02.736Z,103754.82
2019-05-14T01:41:11.942Z,103748.45
2019-05-14T01:44:21.370Z,103753.83
2019-05-14T01:47:31.889Z,103751.09
2019-05-14T01:50:41.437Z,103744.76
2019-05-14T01:53:52.108Z,103750.69
2019-05-14T01:57:02.084Z,103747.57
2019-05-14T02:00:14.177Z,103761.69
2019-05-14T02:03:23.252Z,103767.95
2019-05-14T02:06:42.518Z,103768.16
2019-05-14T02:10:01.722Z,103773.53
2019-05-14T02:13:12.369Z,103769.86
2019-05-14T02:16:34.465Z,103768.22
2019-05-14T02:19:43.432Z,103772.55
2019-05-14T02:23:03.640Z,103775.34
2019-05-14T02:26:12.593Z,103775.44
2019-05-14T02:29:21.500Z,103771.20
2019-05-14T02:32:30.293Z,103769.98
2019-05-14T02:35:39.762Z,103773.72
2019-05-14T02:39:00.396Z,103769.58
2019-05-14T02:42:10.376Z,103763.63
2019-05-14T02:45:19.927Z,103760.65
2019-05-14T02:48:29.532Z,103772.75
2019-05-14T02:51:39.092Z,103769.02
2019-05-14T02:54:59.712Z,103769.79
2019-05-14T02:58:10.024Z,103766.23
2019-05-14T03:01:20.015Z,103770.19
2019-05-14T03:04:31.906Z,103765.19
2019-05-14T03:07:53.045Z,103752.04
2019-05-14T03:11:01.913Z,103756.08
2019-05-14T03:14:09.314Z,103746.66
2019-05-14T03:17:19.916Z,103746.54
2019-05-14T03:20:29.102Z,103746.38
2019-05-14T03:23:39.250Z,103749.81
2019-05-14T03:26:49.949Z,103743.28
2019-05-14T03:30:13.018Z,103746.16
2019-05-14T03:33:22.518Z,103736.38
2019-05-14T03:36:43.468Z,103731.95
2019-05-14T03:39:51.842Z,103745.38
2019-05-14T03:43:00.507Z,103741.77
2019-05-14T03:46:10.137Z,103739.34
2019-05-14T03:49:19.876Z,103742.80
2019-05-14T03:52:40.927Z,103745.99
2019-05-14T03:55:50.686Z,103744.53
2019-05-14T03:59:00.224Z,103752.20
2019-05-14T04:02:10.823Z,103751.25
2019-05-14T04:05:29.782Z,103744.44
2019-05-14T04:08:40.332Z,103752.33
2019-05-14T04:11:52.061Z,103753.67
2019-05-14T04:15:02.020Z,103752.33
2019-05-14T04:18:12.642Z,103758.84
2019-05-14T04:21:22.891Z,103757.02
2019-05-14T04:24:36.873Z,103761.14
2019-05-14T04:27:49.112Z,103760.77
2019-05-14T04:30:59.766Z,103769.52
2019-05-14T04:34:10.787Z,103767.77
2019-05-14T04:37:20.109Z,103774.86
2019-05-14T04:40:29.786Z,103774.22
2019-05-14T04:43:40.130Z,103770.26
2019-05-14T04:46:49.641Z,103768.90
2019-05-14T04:50:00.235Z,103755.73
2019-05-14T04:53:09.020Z,103763.22
2019-05-14T04:56:19.593Z,103758.37
2019-05-14T04:59:39.880Z,103758.53
2019-05-14T05:02:50.224Z,103765.33
2019-05-14T05:05:59.388Z,103757.79
2019-05-14T05:09:10.055Z,103766.59
2019-05-14T05:12:19.738Z,103763.94
2019-05-14T05:15:29.138Z,103764.17
2019-05-14T05:18:41.017Z,103764.30
2019-05-14T05:21:49.977Z,103760.97
2019-05-14T05:24:59.083Z,103762.76
2019-05-14T05:28:19.309Z,103757.86
2019-05-14T05:31:29.406Z,103765.02
2019-05-14T05:34:38.770Z,103761.00
2019-05-14T05:37:49.040Z,103758.03
2019-05-14T05:41:00.339Z,103759.09
2019-05-14T05:44:10.261Z,103760.55
2019-05-14T05:47:18.431Z,103751.20
2019-05-14T05:50:28.718Z,103751.70
2019-05-14T05:53:39.283Z,103758.59
2019-05-14T05:56:48.241Z,103751.99
2019-05-14T05:59:58.888Z,103754.39
2019-05-14T06:03:20.978Z,103749.83
2019-05-14T06:06:29.776Z,103751.02
2019-05-14T06:09:38.765Z,103755.74
2019-05-14T06:12:49.069Z,103759.66
2019-05-14T06:15:59.171Z,103749.67
2019-05-14T06:19:08.455Z,103752.23
2019-05-14T06:22:18.881Z,103751.57
2019-05-14T06:25:31.128Z,103749.02
2019-05-14T06:28:49.996Z,103739.68
2019-05-14T06:31:59.114Z,103744.25
2019-05-14T06:35:08.778Z,103751.28
2019-05-14T06:38:18.490Z,103747.98
2019-05-14T06:41:28.366Z,103752.00
2019-05-14T06:44:38.540Z,103751.36
2019-05-14T06:47:48.718Z,103747.82
2019-05-14T06:50:58.340Z,103756.05
2019-05-14T06:54:19.600Z,103753.52
2019-05-14T06:57:28.602Z,103747.72
2019-05-14T07:00:39.425Z,103753.99
2019-05-14T07:03:54.514Z,103753.70
2019-05-14T07:07:03.149Z,103755.84
2019-05-14T07:10:12.309Z,103749.69
2019-05-14T07:13:20.846Z,103757.35
2019-05-14T07:16:29.456Z,103758.57
2019-05-14T07:19:39.992Z,103753.85
2019-05-14T07:22:50.322Z,103746.97
2019-05-14T07:25:59.258Z,103747.70
2019-05-14T07:29:11.263Z,103744.34
2019-05-14T07:32:19.167Z,103744.30
2019-05-14T07:35:28.854Z,103737.45
2019-05-14T07:38:39.249Z,103748.84
2019-05-14T07:41:48.519Z,103745.45
2019-05-14T07:44:59.390Z,103740.78
2019-05-14T07:48:19.025Z,103730.40
2019-05-14T07:51:29.456Z,103739.91
2019-05-14T07:54:38.941Z,103731.59
2019-05-14T07:57:48.276Z,103736.58
2019-05-14T08:01:09.471Z,103724.05
2019-05-14T08:04:19.914Z,103726.79
2019-05-14T08:07:29.235Z,103719.88
2019-05-14T08:10:39.230Z,103718.88
2019-05-14T08:13:49.372Z,103720.74
2019-05-14T08:16:59.508Z,103712.72
2019-05-14T08:20:20.136Z,103711.42
2019-05-14T08:23:28.901Z,103719.83
2019-05-14T08:26:38.241Z,103702.22
2019-05-14T08:29:58.963Z,103697.80
2019-05-14T08:33:08.956Z,103695.77
2019-05-14T08:36:20.468Z,103698.45
2019-05-14T08:39:29.054Z,103685.26
2019-05-14T08:42:38.338Z,103680.33
2019-05-14T08:45:48.827Z,103672.33
2019-05-14T08:48:58.636Z,103679.76
2019-05-14T08:52:08.772Z,103677.00
2019-05-14T08:55:18.449Z,103670.61
2019-05-14T08:58:29.674Z,103676.90
2019-05-14T09:01:38.804Z,103682.43
2019-05-14T09:04:54.125Z,103680.59
2019-05-14T09:07:58.270Z,103668.75
2019-05-14T09:11:09.807Z,103664.66
2019-05-14T09:14:18.926Z,103672.78
2019-05-14T09:17:28.901Z,103670.10
2019-05-14T09:20:38.210Z,103664.60
2019-05-14T09:23:48.374Z,103652.83
2019-05-14T09:26:59.221Z,103648.46
2019-05-14T09:30:09.666Z,103649.98
2019-05-14T09:33:30.300Z,103640.66
2019-05-14T09:36:39.718Z,103647.17
2019-05-14T09:39:58.843Z,103644.75
2019-05-14T09:43:09.208Z,103641.62
2019-05-14T09:46:18.679Z,103642.18
2019-05-14T09:49:28.241Z,103644.80
2019-05-14T09:52:39.188Z,103647.34
2019-05-14T09:55:49.118Z,103631.41
2019-05-14T09:58:58.691Z,103633.70
2019-05-14T10:02:09.134Z,103625.31
2019-05-14T10:05:19.503Z,103621.12
2019-05-14T10:08:28.692Z,103620.69
2019-05-14T10:11:38.334Z,103618.34
2019-05-14T10:14:59.220Z,103614.09
2019-05-14T10:18:11.681Z,103611.87
2019-05-14T10:21:19.110Z,103613.09
2019-05-14T10:24:29.115Z,103602.59
2019-05-14T10:27:39.133Z,103605.84
2019-05-14T10:30:49.075Z,103596.95
2019-05-14T10:33:58.848Z,103596.20
2019-05-14T10:37:08.693Z,103603.63
2019-05-14T10:40:18.540Z,103593.95
2019-05-14T10:43:28.767Z,103597.97
2019-05-14T10:46:38.419Z,103588.20
2019-05-14T10:49:58.421Z,103587.77
2019-05-14T10:53:09.111Z,103576.91
2019-05-14T10:56:19.319Z,103581.39
2019-05-14T10:59:29.380Z,103579.25
2019-05-14T11:02:38.940Z,103580.11
2019-05-14T11:05:48.255Z,103571.06
2019-05-14T11:09:09.231Z,103564.77
2019-05-14T11:12:29.655Z,103577.11
2019-05-14T11:15:39.526Z,103577.44
2019-05-14T11:18:50.023Z,103575.33
2019-05-14T11:21:59.005Z,103566.28
2019-05-14T11:25:09.130Z,103561.69
2019-05-14T11:28:19.134Z,103557.78
2019-05-14T11:31:29.877Z,103553.19
2019-05-14T11:34:39.104Z,103545.83
2019-05-14T11:37:48.180Z,103551.63
2019-05-14T11:40:58.779Z,103547.53
2019-05-14T11:44:09.127Z,103543.22
2019-05-14T11:47:18.146Z,103546.76
2019-05-14T11:50:39.515Z,103543.91
2019-05-14T11:53:49.476Z,103529.03
2019-05-14T11:56:59.014Z,103524.39
2019-05-14T12:00:20.270Z,103525.44
2019-05-14T12:03:39.743Z,103526.53
2019-05-14T12:06:48.689Z,103513.88
2019-05-14T12:09:57.236Z,103516.44
2019-05-14T12:13:08.378Z,103505.09
2019-05-14T12:16:16.275Z,103501.98
2019-05-14T12:19:35.474Z,103492.33
2019-05-14T12:22:54.496Z,103485.47
2019-05-14T12:26:02.311Z,103488.22
2019-05-14T12:29:11.637Z,103487.00
2019-05-14T12:32:21.432Z,103476.53
2019-05-14T12:35:40.513Z,103472.14
2019-05-14T12:39:04.382Z,103479.20
2019-05-14T12:42:13.075Z,103470.80
2019-05-14T12:45:22.032Z,103464.97
2019-05-14T12:48:30.962Z,103460.53
2019-05-14T12:51:51.448Z,103455.75
2019-05-14T12:54:59.927Z,103456.39
2019-05-14T12:58:11.111Z,103446.33
2019-05-14T13:01:23.249Z,103440.94
2019-05-14T13:04:31.070Z,103445.42
2019-05-14T13:07:41.827Z,103439.09
2019-05-14T13:10:50.852Z,103445.77
2019-05-14T13:13:59.668Z,103437.64
2019-05-14T13:17:09.256Z,103439.19
2019-05-14T13:20:18.660Z,103435.88
2019-05-14T13:23:29.179Z,103434.37
2019-05-14T13:26:39.010Z,103432.69
2019-05-14T13:29:48.804Z,103435.95
2019-05-14T13:33:08.869Z,103420.61
2019-05-14T13:36:20.432Z,103418.53
2019-05-14T13:39:31.542Z,103418.89
2019-05-14T13:42:44.262Z,103420.33
2019-05-14T13:45:50.474Z,103411.41
2019-05-14T13:48:59.414Z,103410.97
2019-05-14T13:52:09.327Z,103395.44
2019-05-14T13:55:19.377Z,103407.80
2019-05-14T13:58:38.751Z,103399.27
2019-05-14T14:01:59.187Z,103397.95
2019-05-14T14:05:10.182Z,103409.33
2019-05-14T14:08:19.350Z,103395.86
2019-05-14T14:11:31.217Z,103386.46
2019-05-14T14:14:39.603Z,103380.98
2019-05-14T14:17:49.613Z,103368.49
2019-05-14T14:20:59.772Z,103377.86
2019-05-14T14:24:10.387Z,103371.05
2019-05-14T14:27:19.727Z,103366.95
2019-05-14T14:30:28.569Z,103376.52
2019-05-14T14:33:48.755Z,103368.83
2019-05-14T14:36:59.326Z,103373.45
2019-05-14T14:40:10.746Z,103376.38
2019-05-14T14:43:19.841Z,103373.17
2019-05-14T14:46:28.803Z,103366.66
2019-05-14T14:49:42.283Z,103366.84
2019-05-14T14:52:59.847Z,103369.92
2019-05-14T14:56:09.481Z,103369.77
2019-05-14T14:59:19.543Z,103365.14
2019-05-14T15:02:28.944Z,103362.61
2019-05-14T15:05:39.038Z,103366.87
2019-05-14T15:08:58.802Z,103350.66
2019-05-14T15:12:09.126Z,103351.19
2019-05-14T15:15:18.663Z,103353.73
2019-05-14T15:18:29.090Z,103353.73
2019-05-14T15:21:37.901Z,103346.05
2019-05-14T15:24:48.767Z,103349.11
2019-05-14T15:27:58.397Z,103346.23
2019-05-14T15:31:08.723Z,103345.72
2019-05-14T15:34:18.906Z,103348.41
2019-05-14T15:37:28.596Z,103355.25
2019-05-14T15:40:40.021Z,103360.83
2019-05-14T15:43:48.518Z,103351.28
2019-05-14T15:46:58.731Z,103351.77
2019-05-14T15:50:09.960Z,103353.11
2019-05-14T15:53:19.479Z,103346.92
2019-05-14T15:56:29.862Z,103349.52
2019-05-14T15:59:48.758Z,103340.30
2019-05-14T16:03:00.315Z,103345.86
2019-05-14T16:06:08.942Z,103347.84
2019-05-14T16:09:19.429Z,103335.70
2019-05-14T16:12:32.003Z,103335.42
2019-05-14T16:15:38.905Z,103324.00
2019-05-14T16:18:48.107Z,103324.91
2019-05-14T16:21:58.611Z,103326.78
2019-05-14T16:25:08.826Z,103319.62
2019-05-14T16:28:28.709Z,103316.47
2019-05-14T16:31:43.214Z,103321.83
2019-05-14T16:34:48.935Z,103325.44
2019-05-14T16:37:59.197Z,103318.88
2019-05-14T16:41:08.007Z,103319.61
2019-05-14T16:44:18.794Z,103320.31
2019-05-14T16:47:28.616Z,103312.10
2019-05-14T16:50:37.411Z,103311.21
2019-05-14T16:53:45.909Z,103314.69
2019-05-14T16:56:54.540Z,103313.30
2019-05-14T17:00:15.328Z,103310.88
2019-05-14T17:03:23.999Z,103312.39
2019-05-14T17:06:34.858Z,103315.67
2019-05-14T17:09:43.524Z,103314.45
2019-05-14T17:12:57.240Z,103315.52
2019-05-14T17:16:02.421Z,103313.30
2019-05-14T17:19:11.109Z,103310.08
2019-05-14T17:22:33.522Z,103302.27
2019-05-14T17:25:40.136Z,103315.27
2019-05-14T17:28:49.838Z,103301.05
2019-05-14T17:31:58.444Z,103302.41
2019-05-14T17:35:08.334Z,103306.59
2019-05-14T17:38:18.487Z,103307.55
2019-05-14T17:41:27.271Z,103302.91
2019-05-14T17:44:35.968Z,103306.25
2019-05-14T17:47:44.770Z,103307.75
2019-05-14T17:50:52.412Z,103303.30
2019-05-14T17:54:00.991Z,103305.68
2019-05-14T17:57:08.720Z,103308.91
2019-05-14T18:00:28.745Z,103312.62
2019-05-14T18:03:39.701Z,103310.33
2019-05-14T18:06:48.844Z,103308.37
2019-05-14T18:09:58.826Z,103303.08
2019-05-14T18:13:09.226Z,103302.47
2019-05-14T18:16:31.427Z,103297.55
2019-05-14T18:19:40.099Z,103305.34
2019-05-14T18:22:48.774Z,103297.87
2019-05-14T18:26:04.871Z,103293.44
2019-05-14T18:29:08.796Z,103286.16
2019-05-14T18:32:28.204Z,103280.37
2019-05-14T18:35:48.355Z,103288.31
2019-05-14T18:38:58.545Z,103293.87
2019-05-14T18:42:08.635Z,103289.73
2019-05-14T18:45:19.015Z,103288.30
2019-05-14T18:48:29.016Z,103282.83
2019-05-14T18:51:37.848Z,103280.55
2019-05-14T18:54:48.348Z,103287.67
2019-05-14T18:58:08.553Z,103276.42
2019-05-14T19:01:19.670Z,103292.14
2019-05-14T19:04:29.613Z,103291.36
2019-05-14T19:07:48.830Z,103283.95
2019-05-14T19:11:08.321Z,103288.11
2019-05-14T19:14:29.256Z,103285.81
2019-05-14T19:17:38.535Z,103292.02
2019-05-14T19:20:48.625Z,103295.44
2019-05-14T19:23:57.420Z,103291.51
2019-05-14T19:27:04.530Z,103301.56
2019-05-14T19:30:23.519Z,103290.95
2019-05-14T19:33:32.182Z,103296.50
2019-05-14T19:36:40.774Z,103301.33
2019-05-14T19:39:49.406Z,103296.89
2019-05-14T19:42:58.075Z,103296.87
2019-05-14T19:46:08.756Z,103300.17
2019-05-14T19:49:18.426Z,103292.31
2019-05-14T19:52:28.303Z,103289.84
2019-05-14T19:55:39.191Z,103287.28
2019-05-14T19:58:47.948Z,103292.76
2019-05-14T20:01:58.809Z,103292.27
2019-05-14T20:05:19.084Z,103285.20
2019-05-14T20:08:43.952Z,103295.27
2019-05-14T20:11:52.506Z,103292.21
2019-05-14T20:15:01.138Z,103299.11
2019-05-14T20:18:10.447Z,103299.92
2019-05-14T20:21:19.021Z,103292.00
2019-05-14T20:24:28.305Z,103287.30
2019-05-14T20:27:48.007Z,103278.77
2019-05-14T20:30:58.637Z,103286.11
2019-05-14T20:34:08.463Z,103279.66
2019-05-14T20:37:29.112Z,103274.50
2019-05-14T20:40:38.071Z,103279.52
2019-05-14T20:43:58.629Z,103282.58
2019-05-14T20:47:09.173Z,103281.47
2019-05-14T20:50:18.293Z,103282.54
2019-05-14T20:53:39.463Z,103273.64
2019-05-14T20:56:49.303Z,103279.84
2019-05-14T20:59:58.870Z,103282.17
2019-05-14T21:03:08.971Z,103282.05
2019-05-14T21:06:28.107Z,103268.96
2019-05-14T21:09:49.262Z,103268.47
2019-05-14T21:12:58.056Z,103281.19
2019-05-14T21:16:08.380Z,103286.36
2019-05-14T21:19:28.331Z,103268.98
2019-05-14T21:22:39.700Z,103274.63
2019-05-14T21:25:48.326Z,103275.74
2019-05-14T21:29:07.946Z,103278.39
2019-05-14T21:32:16.505Z,103278.73
2019-05-14T21:35:35.437Z,103273.89
2019-05-14T21:38:44.071Z,103271.18
2019-05-14T21:41:52.556Z,103269.16
2019-05-14T21:45:01.065Z,103270.58
2019-05-14T21:48:09.782Z,103268.71
2019-05-14T21:51:18.263Z,103268.79
2019-05-14T21:54:39.305Z,103267.81
2019-05-14T21:57:56.076Z,103270.19
2019-05-14T22:00:59.262Z,103262.83
2019-05-14T22:04:08.757Z,103266.68
2019-05-14T22:07:18.470Z,103252.20
2019-05-14T22:10:28.771Z,103265.66
2019-05-14T22:13:38.227Z,103256.49
2019-05-14T22:16:58.385Z,103248.14
2019-05-14T22:20:08.571Z,103258.73
2019-05-14T22:23:17.890Z,103249.03
2019-05-14T22:26:28.198Z,103246.95
2019-05-14T22:29:36.928Z,103247.05
2019-05-14T22:32:45.532Z,103248.91
2019-05-14T22:35:54.332Z,103242.17
2019-05-14T22:39:02.849Z,103244.89
2019-05-14T22:42:11.415Z,103240.63
2019-05-14T22:45:20.519Z,103241.58
2019-05-14T22:48:28.993Z,103245.77
2019-05-14T22:51:38.444Z,103244.79
2019-05-14T22:54:49.070Z,103238.92
2019-05-14T22:57:59.373Z,103245.55
2019-05-14T23:01:14.711Z,103236.20
2019-05-14T23:04:18.398Z,103235.84
2019-05-14T23:07:27.104Z,103232.98
2019-05-14T23:10:35.804Z,103230.78
2019-05-14T23:13:44.380Z,103235.70
2019-05-14T23:16:53.007Z,103230.66
2019-05-14T23:20:01.603Z,103231.95
2019-05-14T23:23:20.455Z,103221.39
2019-05-14T23:26:29.050Z,103219.83
2019-05-14T23:29:38.524Z,103219.94
2019-05-14T23:32:48.975Z,103227.06
2019-05-14T23:36:08.778Z,103231.20
2019-05-14T23:39:18.525Z,103230.48
2019-05-14T23:42:39.226Z,103227.16
2019-05-14T23:45:48.275Z,103229.25
2019-05-14T23:49:08.868Z,103227.91
2019-05-14T23:52:19.415Z,103228.15
2019-05-14T23:55:28.880Z,103228.73
2019-05-14T23:58:37.901Z,103220.91
